KCEU/CEU METAR and TAF weather

Enter ICAO airport designator
Station Type Date Time Source
KCEU METAR 2023/02/05 13:54 UTC NOAA

KCEU 051354Z AUTO 00000KT 10SM CLR 02/M04 A3037 RMK AO2 SLP287 T00221039 $


Station Type Date Time Source
KCEU Decoded METAR 2023/02/05 13:54 UTC NOAA

CLEMSON-OCONEE COUNTY AIRPORT , SC, United States (KCEU) 34-40N 082-53W 268M
Feb 05, 2023 - 08:54 AM EST / 2023.02.05 1354 UTC
Wind: Calm:0
Visibility: 10 mile(s):0
Sky conditions: clear
Temperature: 36.0 F (2.2 C)
Dew Point: 25.0 F (-3.9 C)
Relative Humidity: 63%
Pressure (altimeter): 30.37 in. Hg (1028 hPa)
ob: KCEU 051354Z AUTO 00000KT 10SM CLR 02/M04 A3037 RMK AO2 SLP287 T00221039
cycle: 14

Station Type Date Time Source
KCEU TAF UTC NOAA

Error!

Example: see airport list